Saint James City, Florida
Current Conditions -  °F | °C
As of 4:53 AM on Thursday 23 Oct 2014 (Local Time) from KFMY Reporting Station
Few Clouds Few Clouds  
Wind Chill: 71°   Ceiling: Unl
Heat Index: 71°   Visibility: 10mi
Dew Point: 65°   Wind: 8mph
Humidity: 81%   Direction: 50°NE
Pressure: 29.89"   Gusts: NA
Location:  26.5°N, 82.08°W
Report Text: KFMY 230853Z AUTO 05007KT 10SM FEW027 22/18 A2989 RMK AO2 SLP124 T02170183 56009
Loading
Personal Weather Stations






























Interactive Weather Map
Tropical Storm Tracking
New forecast layout! Learn more

10-Day Weather Forecast

Advertisements
Track Severe Weather on mobile